Aeroporto :
LOGIN :

Iscrizione | Disclaimer

   EN    FR    IT 

 










Sommario :    VFR   VFR Marginale   IFR   IFR Intensivo   IFR Molto Intensivo
Visibilità : 
Base nubi : 
>= 8 km
>= 3000ft
5 / 8 km
1000 / 3000 ft
1500m / 5 km
500 / 1000 ft
800 / 1500m
200 / 500 ft
< 800m
< 200 ft
Simboli :   Temporali  Nebbia  Neve Forte  Precipitazioni Forti  Vento > 20 kt
SIGMETs :   Varie  Temporali  Ghiacco  Turbolenza  Onda orograficha  Ceneri Vulcaniche







- Altitudine del aeroporto : 375 ft
- Codice IATA : MST


EHBK - Maastricht Aachen

ULTIMO METAR :
  • 201825Z AUTO 24008KT 200V270 9999 NSC 23/17 Q1012 NOSIG

METARs OBSOLETI :
  • 201755Z AUTO 23009KT 200V260 9999 NSC 23/17 Q1012 NOSIG
  • 201725Z AUTO 23010KT 200V260 9999 NSC 23/17 Q1012 NOSIG
  • 201655Z AUTO 22010KT 190V250 9999 NSC 23/18 Q1012 NOSIG
  • 201625Z AUTO 22009KT 180V260 9999 NCD 22/18 Q1011 NOSIG
  • 201555Z AUTO 23010KT 200V260 9999 NSC 21/18 Q1011 REDZ NOSIG

TAF TAF EHBK
Valido dal 20 a 18 ore il 22 a 00 ore UTC


201711Z 2018/2124 21008KT 9999 SCT040
PROB40 2103/2107 BKN008
Nessun NOTAM noto per questo aeroporto.



MetMap, La meteo Aeronautica in un colpo d'occhio ! - Copyright ORBIFLY Dicembre 2007 - Disclaimer

ORBIFLY MET'MAP TEAM :

Programmazione e sviluppo : Alexandra Zaïnal
Concezione e sviluppo : Baudouin d'Aumeries
Co-Programmazione e sviluppo : Marc-Olivier Méhu
Supporto tecnico e logistico : Manuel Goepfert
Aiuto per la traduzione : Arnaldo La Scala

Contatto : metmap@orbifly.com




FONTI E CREDITI :

   NOAA